Stations

Station Name Date Time Temperature Relative Humidity Precipitation Wind Speed Wind Direction Create Custom Report Daily Report Hourly Report
Aberdeen VTcr 2018-21-07 8:00 78.7 81.60 0.00
Bee Lake 2018-21-07 8:00 72.5 95.90 0.16 5.43 WSW
Brooksville 2018-21-07 8:00 78.8 82.30 0.05 11.99 SW
Brooksville2 VTso 2018-21-07 8:00 78.1 81.60 0.14
Brown Loam Exp Stn VT 2018-21-07 8:00 78.1 84.30 0.00
Catladge Farm 2018-21-07 8:00 75.6 90.90 0.00 2.66 SSE
Clarksdale VTso 2018-21-07 8:00 74.3 98.10 0.90
Cleveland 2018-21-07 8:00 74.4 94.00 0.80 3.66 ESE
COOP Stoneville 2018-20-07 8:00 79.0 90 0.41
Home Cypress Farm 2018-21-07 8:00 73.7 97.40 0.74 2.76 ESE
Jackson Co 2018-21-07 8:00 81.6 95.10 0.00 2.65 WNW
Longwood VTso 2018-21-07 8:00 73.1 95.60 0.02
Lyon 2018-21-07 8:00 73.5 94.40 0.01 2.40 SE
Macon VTcr 2018-21-07 8:00 77.1 82.70 0.02
Mound Bayou 2018-21-07 8:00 74.3 94.60 0.44 1.85 S
Olive Branch VTcr 2018-21-07 8:00 81.7 77.78 0.00
Olive Branch2 VTso 2018-21-07 8:00 80.5 84.70 0.00
Onward VT 2018-21-07 8:00 75.9 82.20 0.00
Pontotoc AWS COOP 2018-21-07 8:00 78.5 79.93 0.00
Prairie 2018-21-07 8:00 79.4 89.20 0.00 4.62 WNW
Sidon 2018-21-07 8:00 72.6 98.60 0.57 0.74 NNW
Stockett Farm 2018-21-07 7:45 77.8 97.60 0.00 0.00 S
Stoneville AWS 2018-21-07 8:00 73.4 92.30 0.05 2.35 SSW
Stoneville F10 2018-21-07 8:00 73.2 92.00 0.04 3.44 SE
Stoneville SW 2018-21-07 8:00 73.3 96.10 0.05 4.41 SE
Stoneville W 2018-21-07 8:00 73.6 96.30 0.04 3.58 S
Thighman 2018-21-07 8:00 73.2 94.20 0.20 3.47 NW
Tippo VT 2018-21-07 8:00 73.7 91.20 0.04
Tribbett 2018-21-07 8:00 73.9 94.60 0.03 2.03 ESE
Verona 2018-21-07 8:00 81.6 82.60 0.00 5.62 W
Verona VTso 2018-21-07 8:00 81.3 83.20 0.00